createdAt,value
2024-01-29T00:00:35.989Z,0.52
2024-01-29T00:01:35.975Z,0.54
2024-01-29T00:02:35.936Z,0.52
2024-01-29T00:03:36.065Z,0.54
2024-01-29T00:04:36.265Z,0.50
2024-01-29T00:05:35.974Z,0.53
2024-01-29T00:06:36.176Z,0.50
2024-01-29T00:07:35.996Z,0.52
2024-01-29T00:08:36.018Z,0.55
2024-01-29T00:09:36.081Z,0.55
2024-01-29T00:10:36.165Z,0.53
2024-01-29T00:11:36.258Z,0.54
2024-01-29T00:12:36.195Z,0.54
2024-01-29T00:13:36.158Z,0.53
2024-01-29T00:14:36.186Z,0.52
2024-01-29T00:15:36.289Z,0.54
2024-01-29T00:16:36.228Z,0.55
2024-01-29T00:17:36.333Z,0.54
2024-01-29T00:18:36.369Z,0.53
2024-01-29T00:19:36.452Z,0.53
2024-01-29T00:20:36.367Z,0.53
2024-01-29T00:21:36.393Z,0.55
2024-01-29T00:22:36.396Z,0.54
2024-01-29T00:23:36.418Z,0.54
2024-01-29T00:24:36.518Z,0.55
2024-01-29T00:25:36.496Z,0.54
2024-01-29T00:26:36.522Z,0.53
2024-01-29T00:27:36.558Z,0.54
2024-01-29T00:28:36.567Z,0.54
2024-01-29T00:29:36.582Z,0.55
2024-01-29T00:30:36.660Z,0.51
2024-01-29T00:31:36.635Z,0.53
2024-01-29T00:32:36.708Z,0.53
2024-01-29T00:33:36.844Z,0.53
2024-01-29T00:34:36.757Z,0.54
2024-01-29T00:35:36.755Z,0.52
2024-01-29T00:36:36.815Z,0.54
2024-01-29T00:37:36.811Z,0.54
2024-01-29T00:38:36.836Z,0.53
2024-01-29T00:39:36.870Z,0.54
2024-01-29T00:40:36.887Z,0.53
2024-01-29T00:41:36.925Z,0.52
2024-01-29T00:42:37.008Z,0.53
2024-01-29T00:43:36.947Z,0.52
2024-01-29T00:44:36.991Z,0.53
2024-01-29T00:45:37.042Z,0.53
2024-01-29T00:46:37.048Z,0.53
2024-01-29T00:47:37.120Z,0.53
2024-01-29T00:48:37.208Z,0.53
2024-01-29T00:49:37.506Z,0.53
2024-01-29T00:50:37.160Z,0.54
2024-01-29T00:51:37.204Z,0.53
2024-01-29T00:52:37.205Z,0.53
2024-01-29T00:53:37.252Z,0.53
2024-01-29T00:54:37.304Z,0.52
2024-01-29T00:55:37.277Z,0.53
2024-01-29T00:56:37.314Z,0.53
2024-01-29T00:57:37.347Z,0.52
2024-01-29T00:58:37.360Z,0.53
2024-01-29T00:59:37.406Z,0.55
2024-01-29T01:00:37.483Z,0.54
2024-01-29T01:01:37.560Z,0.54
2024-01-29T01:02:37.542Z,0.54
2024-01-29T01:03:37.553Z,0.53
2024-01-29T01:04:37.621Z,0.53
2024-01-29T01:05:37.667Z,0.52
2024-01-29T01:06:37.726Z,0.52
2024-01-29T01:07:37.638Z,0.54
2024-01-29T01:08:37.639Z,0.53
2024-01-29T01:09:37.728Z,0.53
2024-01-29T01:10:37.716Z,0.54
2024-01-29T01:11:37.710Z,0.54
2024-01-29T01:12:37.778Z,0.54
2024-01-29T01:13:37.718Z,0.54
2024-01-29T01:14:37.763Z,0.54
2024-01-29T01:15:37.803Z,0.54
2024-01-29T01:16:37.743Z,0.54
2024-01-29T01:17:37.820Z,0.55
2024-01-29T01:18:37.834Z,0.53
2024-01-29T01:19:37.844Z,0.54
2024-01-29T01:20:37.770Z,0.54
2024-01-29T01:21:37.805Z,0.54
2024-01-29T01:22:37.808Z,0.53
2024-01-29T01:23:37.792Z,0.54
2024-01-29T01:24:37.826Z,0.54
2024-01-29T01:25:37.800Z,0.53
2024-01-29T01:26:37.806Z,0.53
2024-01-29T01:27:37.845Z,0.54
2024-01-29T01:28:37.826Z,0.54
2024-01-29T01:29:37.843Z,0.54
2024-01-29T01:30:37.926Z,0.54
2024-01-29T01:31:37.854Z,0.52
2024-01-29T01:32:37.918Z,0.54
2024-01-29T01:33:37.947Z,0.54
2024-01-29T01:34:38.047Z,0.54
2024-01-29T01:35:37.882Z,0.54
2024-01-29T01:36:37.897Z,0.54
2024-01-29T01:37:37.887Z,0.52
2024-01-29T01:38:37.913Z,0.53
2024-01-29T01:39:37.932Z,0.55
2024-01-29T01:40:37.921Z,0.54
2024-01-29T01:41:37.974Z,0.54
2024-01-29T01:42:38.020Z,0.54
2024-01-29T01:43:38.048Z,0.53
2024-01-29T01:44:38.081Z,0.54
2024-01-29T01:45:38.206Z,0.53
2024-01-29T01:46:38.233Z,0.53
2024-01-29T01:47:38.165Z,0.52
2024-01-29T01:48:38.265Z,0.53
2024-01-29T01:49:38.294Z,0.53
2024-01-29T01:50:38.226Z,0.54
2024-01-29T01:51:38.289Z,0.54
2024-01-29T01:52:38.285Z,0.53
2024-01-29T01:53:38.338Z,0.53
2024-01-29T01:54:38.393Z,0.53
2024-01-29T01:55:38.373Z,0.53
2024-01-29T01:56:38.399Z,0.54
2024-01-29T01:57:38.480Z,0.53
2024-01-29T01:58:38.472Z,0.53
2024-01-29T01:59:38.500Z,0.54
2024-01-29T02:00:38.602Z,0.53
2024-01-29T02:01:38.643Z,0.52
2024-01-29T02:02:38.603Z,0.53
2024-01-29T02:03:38.660Z,0.53
2024-01-29T02:04:38.774Z,0.52
2024-01-29T02:05:38.718Z,0.53
2024-01-29T02:06:38.754Z,0.52
2024-01-29T02:07:38.804Z,0.53
2024-01-29T02:08:38.781Z,0.52
2024-01-29T02:09:38.838Z,0.53
2024-01-29T02:10:38.833Z,0.53
2024-01-29T02:11:38.864Z,0.52
2024-01-29T02:12:38.947Z,0.53
2024-01-29T02:13:38.911Z,0.52
2024-01-29T02:14:38.962Z,0.52
2024-01-29T02:15:38.986Z,0.53
2024-01-29T02:16:39.030Z,0.53
2024-01-29T02:17:39.079Z,0.53
2024-01-29T02:18:39.148Z,0.52
2024-01-29T02:19:39.262Z,0.52
2024-01-29T02:20:39.128Z,0.52
2024-01-29T02:21:39.140Z,0.52
2024-01-29T02:22:39.177Z,0.52
2024-01-29T02:23:39.169Z,0.52
2024-01-29T02:24:39.228Z,0.52
2024-01-29T02:25:39.176Z,0.51
2024-01-29T02:26:39.189Z,0.52
2024-01-29T02:27:39.208Z,0.53
2024-01-29T02:28:39.212Z,0.52
2024-01-29T02:29:39.243Z,0.53
2024-01-29T02:30:39.274Z,0.52
2024-01-29T02:31:39.216Z,0.52
2024-01-29T02:32:39.271Z,0.53
2024-01-29T02:33:39.974Z,0.53
2024-01-29T02:34:39.310Z,0.50
2024-01-29T02:35:39.234Z,0.53
2024-01-29T02:36:39.262Z,0.51
2024-01-29T02:37:39.238Z,0.52
2024-01-29T02:38:39.242Z,0.53
2024-01-29T02:39:39.291Z,0.52
2024-01-29T02:40:39.255Z,0.53
2024-01-29T02:41:39.248Z,0.52
2024-01-29T02:42:39.261Z,0.53
2024-01-29T02:43:39.232Z,0.53
2024-01-29T02:44:39.243Z,0.53
2024-01-29T02:45:39.309Z,0.52
2024-01-29T02:46:39.240Z,0.51
2024-01-29T02:47:39.270Z,0.53
2024-01-29T02:48:39.304Z,0.53
2024-01-29T02:49:39.360Z,0.54
2024-01-29T02:50:39.254Z,0.53
2024-01-29T02:51:39.298Z,0.54
2024-01-29T02:52:39.256Z,0.54
2024-01-29T02:53:39.258Z,0.53
2024-01-29T02:54:39.288Z,0.54
2024-01-29T02:55:39.257Z,0.54
2024-01-29T02:56:39.267Z,0.54
2024-01-29T02:57:39.317Z,0.50
2024-01-29T02:58:39.271Z,0.54
2024-01-29T02:59:39.287Z,0.52
2024-01-29T03:00:39.362Z,0.54
2024-01-29T03:01:39.467Z,0.52
2024-01-29T03:02:39.371Z,0.53
2024-01-29T03:03:39.490Z,0.53
2024-01-29T03:04:39.527Z,0.54
2024-01-29T03:05:39.437Z,0.51
2024-01-29T03:06:39.467Z,0.54
2024-01-29T03:07:39.458Z,0.53
2024-01-29T03:08:39.479Z,0.53
2024-01-29T03:09:39.555Z,0.53
2024-01-29T03:10:39.520Z,0.53
2024-01-29T03:11:39.545Z,0.53
2024-01-29T03:12:39.581Z,0.54
2024-01-29T03:13:39.592Z,0.53
2024-01-29T03:14:39.618Z,0.54
2024-01-29T03:15:40.380Z,0.52
2024-01-29T03:16:39.642Z,0.53
2024-01-29T03:17:39.686Z,0.54
2024-01-29T03:18:39.809Z,0.53
2024-01-29T03:19:39.928Z,0.52
2024-01-29T03:20:39.707Z,0.52
2024-01-29T03:21:39.719Z,0.53
2024-01-29T03:22:39.730Z,0.54
2024-01-29T03:23:39.746Z,0.52
2024-01-29T03:24:39.800Z,0.51
2024-01-29T03:25:39.782Z,0.53
2024-01-29T03:26:39.802Z,0.53
2024-01-29T03:27:39.879Z,0.53
2024-01-29T03:28:39.849Z,0.54
2024-01-29T03:29:39.852Z,0.53
2024-01-29T03:30:39.921Z,0.50
2024-01-29T03:31:39.888Z,0.53
2024-01-29T03:32:39.952Z,0.53
2024-01-29T03:33:40.065Z,0.55
2024-01-29T03:34:40.037Z,0.53
2024-01-29T03:35:39.943Z,0.54
2024-01-29T03:36:39.971Z,0.53
2024-01-29T03:37:39.978Z,0.54
2024-01-29T03:38:39.993Z,0.55
2024-01-29T03:39:40.031Z,0.54
2024-01-29T03:40:40.014Z,0.55
2024-01-29T03:41:40.017Z,0.55
2024-01-29T03:42:40.069Z,0.53
2024-01-29T03:43:40.050Z,0.53
2024-01-29T03:44:40.071Z,0.52
2024-01-29T03:45:40.136Z,0.55
2024-01-29T03:46:40.080Z,0.53
2024-01-29T03:47:40.093Z,0.55
2024-01-29T03:48:40.252Z,0.55
2024-01-29T03:49:40.204Z,0.53
2024-01-29T03:50:40.127Z,0.53
2024-01-29T03:51:40.165Z,0.53
2024-01-29T03:52:40.128Z,0.53
2024-01-29T03:53:40.120Z,0.53
2024-01-29T03:54:40.157Z,0.54
2024-01-29T03:55:40.145Z,0.53
2024-01-29T03:56:40.133Z,0.53
2024-01-29T03:57:40.188Z,0.54
2024-01-29T03:58:40.150Z,0.55
2024-01-29T03:59:40.151Z,0.56
2024-01-29T04:00:40.321Z,0.55
2024-01-29T04:01:40.340Z,0.52
2024-01-29T04:02:40.160Z,0.53
2024-01-29T04:03:40.251Z,0.53
2024-01-29T04:04:40.340Z,0.56
2024-01-29T04:05:40.207Z,0.55
2024-01-29T04:06:40.269Z,0.54
2024-01-29T04:07:40.276Z,0.54
2024-01-29T04:08:40.178Z,0.55
2024-01-29T04:09:40.230Z,0.55
2024-01-29T04:10:40.195Z,0.52
2024-01-29T04:11:40.211Z,0.52
2024-01-29T04:12:40.232Z,0.50
2024-01-29T04:13:40.200Z,0.50
2024-01-29T04:14:40.204Z,0.51
2024-01-29T04:15:40.255Z,0.52
2024-01-29T04:16:40.185Z,0.52
2024-01-29T04:17:40.331Z,0.50
2024-01-29T04:18:40.306Z,0.51
2024-01-29T04:19:40.231Z,0.52
2024-01-29T04:20:40.275Z,0.53
2024-01-29T04:21:40.242Z,0.55
2024-01-29T04:22:40.222Z,0.55
2024-01-29T04:23:40.290Z,0.56
2024-01-29T04:24:40.255Z,0.54
2024-01-29T04:25:40.240Z,0.54
2024-01-29T04:26:40.244Z,0.54
2024-01-29T04:27:40.278Z,0.54
2024-01-29T04:28:40.251Z,0.55
2024-01-29T04:29:40.276Z,0.52
2024-01-29T04:30:40.308Z,0.55
2024-01-29T04:31:40.266Z,0.53
2024-01-29T04:32:40.399Z,0.54
2024-01-29T04:33:40.314Z,0.55
2024-01-29T04:34:40.319Z,0.54
2024-01-29T04:35:40.282Z,0.55
2024-01-29T04:36:40.321Z,0.55
2024-01-29T04:37:40.294Z,0.55
2024-01-29T04:38:40.325Z,0.53
2024-01-29T04:39:40.344Z,0.53
2024-01-29T04:40:40.363Z,0.53
2024-01-29T04:41:40.354Z,0.56
2024-01-29T04:42:40.436Z,0.55
2024-01-29T04:43:40.343Z,0.55
2024-01-29T04:44:40.366Z,0.52
2024-01-29T04:45:40.385Z,0.55
2024-01-29T04:46:40.366Z,0.52
2024-01-29T04:47:40.471Z,0.52
2024-01-29T04:48:40.378Z,0.53
2024-01-29T04:49:40.463Z,0.53
2024-01-29T04:50:47.754Z,0.50
2024-01-29T04:51:47.884Z,0.50
2024-01-29T04:52:47.773Z,0.50
2024-01-29T04:53:47.788Z,0.50
2024-01-29T04:54:47.866Z,0.50
2024-01-29T04:55:47.818Z,0.51
2024-01-29T04:56:47.827Z,0.51
2024-01-29T04:57:47.849Z,0.52
2024-01-29T04:58:47.908Z,0.54
2024-01-29T04:59:47.863Z,0.53
2024-01-29T05:00:47.977Z,0.53
2024-01-29T05:01:48.024Z,0.54
2024-01-29T05:02:47.949Z,0.53
2024-01-29T05:03:50.602Z,0.53
2024-01-29T05:04:48.095Z,0.52
2024-01-29T05:05:48.044Z,0.53
2024-01-29T05:06:48.050Z,0.53
2024-01-29T05:07:48.041Z,0.51
2024-01-29T05:08:48.052Z,0.53
2024-01-29T05:09:48.381Z,0.52
2024-01-29T05:10:48.161Z,0.53
2024-01-29T05:11:48.091Z,0.53
2024-01-29T05:12:48.112Z,0.53
2024-01-29T05:13:48.123Z,0.53
2024-01-29T05:14:48.133Z,0.54
2024-01-29T05:15:48.218Z,0.54
2024-01-29T05:16:48.144Z,0.52
2024-01-29T05:17:48.222Z,0.52
2024-01-29T05:18:48.186Z,0.54
2024-01-29T05:19:48.206Z,0.54
2024-01-29T05:20:48.190Z,0.53
2024-01-29T05:21:49.031Z,0.54
2024-01-29T05:22:48.213Z,0.53
2024-01-29T05:23:48.227Z,0.52
2024-01-29T05:24:48.234Z,0.51
2024-01-29T05:25:48.249Z,0.53
2024-01-29T05:26:48.250Z,0.54
2024-01-29T05:27:48.368Z,0.52
2024-01-29T05:28:48.266Z,0.53
2024-01-29T05:29:48.274Z,0.54
2024-01-29T05:30:48.311Z,0.54
2024-01-29T05:31:48.323Z,0.53
2024-01-29T05:32:48.369Z,0.52
2024-01-29T05:33:48.463Z,0.52
2024-01-29T05:34:48.483Z,0.53
2024-01-29T05:35:48.541Z,0.54
2024-01-29T05:36:48.456Z,0.53
2024-01-29T05:37:48.390Z,0.52
2024-01-29T05:38:48.404Z,0.50
2024-01-29T05:39:48.515Z,0.53
2024-01-29T05:40:48.429Z,0.54
2024-01-29T05:41:48.441Z,0.53
2024-01-29T05:42:48.489Z,0.53
2024-01-29T05:43:48.469Z,0.52
2024-01-29T05:44:48.486Z,0.51
2024-01-29T05:45:48.534Z,0.53
2024-01-29T05:46:48.482Z,0.52
2024-01-29T05:47:48.584Z,0.51
2024-01-29T05:48:48.733Z,0.51
2024-01-29T05:49:48.659Z,0.53
2024-01-29T05:50:48.546Z,0.52
2024-01-29T05:51:48.629Z,0.53
2024-01-29T05:52:49.369Z,0.53
2024-01-29T05:53:48.680Z,0.53
2024-01-29T05:54:48.728Z,0.54
2024-01-29T05:55:48.627Z,0.53
2024-01-29T05:56:51.026Z,0.53
2024-01-29T05:57:48.645Z,0.52
2024-01-29T05:58:48.656Z,0.54
2024-01-29T05:59:48.666Z,0.53
2024-01-29T06:00:48.815Z,0.54
2024-01-29T06:01:49.026Z,0.54
2024-01-29T06:02:48.813Z,0.54
2024-01-29T06:03:48.740Z,0.55
2024-01-29T06:04:49.419Z,0.54
2024-01-29T06:05:48.843Z,0.55
2024-01-29T06:06:48.999Z,0.55
2024-01-29T06:07:48.821Z,0.53
2024-01-29T06:08:48.792Z,0.52
2024-01-29T06:09:48.849Z,0.54
2024-01-29T06:10:50.712Z,0.54
2024-01-29T06:11:48.849Z,0.54
2024-01-29T06:12:48.908Z,0.54
2024-01-29T06:13:48.942Z,0.55
2024-01-29T06:14:48.951Z,0.55
2024-01-29T06:15:48.982Z,0.54
2024-01-29T06:16:48.924Z,0.54
2024-01-29T06:17:48.991Z,0.50
2024-01-29T06:18:49.099Z,0.55
2024-01-29T06:20:03.215Z,0.52
2024-01-29T06:20:50.156Z,0.51
2024-01-29T06:21:49.108Z,0.53
2024-01-29T06:22:48.983Z,0.52
2024-01-29T06:23:48.998Z,0.53
2024-01-29T06:24:49.045Z,0.52
2024-01-29T06:25:49.055Z,0.55
2024-01-29T06:26:49.718Z,0.56
2024-01-29T06:27:49.164Z,0.58
2024-01-29T06:28:49.078Z,0.59
2024-01-29T06:29:49.104Z,0.60
2024-01-29T06:30:49.163Z,0.63
2024-01-29T06:31:49.206Z,0.67
2024-01-29T06:32:49.327Z,0.71
2024-01-29T06:33:49.383Z,0.73
2024-01-29T06:34:49.645Z,0.81
2024-01-29T06:35:49.479Z,0.83
2024-01-29T06:36:49.562Z,0.84
2024-01-29T06:37:50.301Z,0.94
2024-01-29T06:38:49.630Z,1.06
2024-01-29T06:39:49.742Z,1.12
2024-01-29T06:40:49.720Z,1.22
2024-01-29T06:41:49.770Z,1.30
2024-01-29T06:42:49.861Z,1.42
2024-01-29T06:43:49.818Z,1.52
2024-01-29T06:44:49.857Z,1.79
2024-01-29T06:45:50.424Z,2.09
2024-01-29T06:46:49.943Z,2.35
2024-01-29T06:47:49.962Z,2.49
2024-01-29T06:48:50.050Z,2.65
2024-01-29T06:49:50.920Z,2.73
2024-01-29T06:50:50.882Z,2.96
2024-01-29T06:51:51.911Z,3.23
2024-01-29T06:52:50.381Z,3.38
2024-01-29T06:53:50.101Z,3.61
2024-01-29T06:54:50.118Z,3.84
2024-01-29T06:55:50.129Z,4.02
2024-01-29T06:56:50.134Z,4.24
2024-01-29T06:57:50.267Z,4.29
2024-01-29T06:58:50.112Z,4.66
2024-01-29T06:59:50.851Z,5.03
2024-01-29T07:00:50.259Z,5.08
2024-01-29T07:01:50.282Z,5.30
2024-01-29T07:02:50.176Z,5.61
2024-01-29T07:03:50.404Z,5.58
2024-01-29T07:04:50.955Z,5.87
2024-01-29T07:05:50.340Z,6.06
2024-01-29T07:06:50.354Z,6.28
2024-01-29T07:07:50.389Z,6.71
2024-01-29T07:08:50.310Z,6.95
2024-01-29T07:09:50.313Z,7.42
2024-01-29T07:10:50.321Z,7.59
2024-01-29T07:11:51.013Z,8.11
2024-01-29T07:12:50.443Z,8.05
2024-01-29T07:13:50.406Z,8.51
2024-01-29T07:14:50.337Z,8.62
2024-01-29T07:15:50.468Z,9.23
2024-01-29T07:16:50.360Z,9.54
2024-01-29T07:17:50.426Z,10.22
2024-01-29T07:18:50.476Z,10.07
2024-01-29T07:19:50.438Z,10.67
2024-01-29T07:20:50.490Z,11.24
2024-01-29T07:21:50.507Z,11.54
2024-01-29T07:22:50.439Z,12.31
2024-01-29T07:23:50.433Z,12.83
2024-01-29T07:24:51.448Z,13.96
2024-01-29T07:25:50.520Z,14.38
2024-01-29T07:26:50.452Z,14.56
2024-01-29T07:27:50.506Z,14.95
2024-01-29T07:28:50.510Z,14.94
2024-01-29T07:29:50.558Z,15.40
2024-01-29T07:30:50.634Z,16.00
2024-01-29T07:31:50.777Z,16.51
2024-01-29T07:32:50.775Z,16.61
2024-01-29T07:33:50.798Z,17.36
2024-01-29T07:34:53.112Z,18.01
2024-01-29T07:35:51.009Z,18.40
2024-01-29T07:36:51.137Z,18.48
2024-01-29T07:37:51.058Z,18.85
2024-01-29T07:38:51.901Z,19.76
2024-01-29T07:39:51.175Z,20.27
2024-01-29T07:40:51.192Z,21.03
2024-01-29T07:41:51.218Z,21.28
2024-01-29T07:42:51.548Z,22.39
2024-01-29T07:43:51.298Z,22.97
2024-01-29T07:44:51.415Z,24.10
2024-01-29T07:45:51.431Z,24.83
2024-01-29T07:46:52.399Z,25.59
2024-01-29T07:47:51.542Z,26.17
2024-01-29T07:48:51.595Z,26.14
2024-01-29T07:49:51.743Z,26.34
2024-01-29T07:50:51.585Z,27.26
2024-01-29T07:51:51.684Z,27.49
2024-01-29T07:52:51.654Z,27.50
2024-01-29T07:53:52.413Z,28.54
2024-01-29T07:54:51.746Z,28.82
2024-01-29T07:55:51.772Z,28.87
2024-01-29T07:56:51.839Z,30.83
2024-01-29T07:57:51.977Z,31.68
2024-01-29T07:58:51.923Z,32.35
2024-01-29T07:59:51.949Z,31.66
2024-01-29T08:00:52.262Z,32.05
2024-01-29T08:01:52.126Z,33.53
2024-01-29T08:02:52.184Z,34.81
2024-01-29T08:03:52.193Z,35.06
2024-01-29T08:04:52.369Z,36.26
2024-01-29T08:05:52.279Z,37.02
2024-01-29T08:06:52.343Z,38.03
2024-01-29T08:07:52.393Z,38.67
2024-01-29T08:08:52.444Z,38.33
2024-01-29T08:09:52.549Z,38.71
2024-01-29T08:10:52.564Z,39.52
2024-01-29T08:11:52.606Z,42.19
2024-01-29T08:12:52.716Z,42.12
2024-01-29T08:13:52.816Z,41.47
2024-01-29T08:14:52.748Z,40.31
2024-01-29T08:15:52.835Z,38.44
2024-01-29T08:16:52.945Z,37.81
2024-01-29T08:17:52.980Z,36.18
2024-01-29T08:18:53.096Z,36.59
2024-01-29T08:19:53.060Z,34.52
2024-01-29T08:20:53.115Z,34.69
2024-01-29T08:21:53.038Z,33.82
2024-01-29T08:22:53.155Z,33.81
2024-01-29T08:23:53.094Z,31.71
2024-01-29T08:24:53.123Z,31.78
2024-01-29T08:25:53.137Z,31.31
2024-01-29T08:26:53.202Z,31.01
2024-01-29T08:27:53.954Z,29.85
2024-01-29T08:28:53.265Z,29.23
2024-01-29T08:29:53.341Z,28.11
2024-01-29T08:30:53.471Z,28.28
2024-01-29T08:31:53.414Z,27.06
2024-01-29T08:32:53.507Z,26.59
2024-01-29T08:33:53.656Z,26.49
2024-01-29T08:34:53.754Z,25.72
2024-01-29T08:35:53.923Z,24.46
2024-01-29T08:36:53.744Z,23.69
2024-01-29T08:37:53.776Z,23.94
2024-01-29T08:38:53.862Z,22.79
2024-01-29T08:39:53.918Z,22.43
2024-01-29T08:40:53.950Z,21.01
2024-01-29T08:41:54.060Z,21.10
2024-01-29T08:42:54.135Z,20.58
2024-01-29T08:43:54.168Z,19.85
2024-01-29T08:44:54.325Z,19.29
2024-01-29T08:45:54.337Z,19.36
2024-01-29T08:46:54.375Z,18.91
2024-01-29T08:47:54.495Z,18.23
2024-01-29T08:48:54.571Z,17.93
2024-01-29T08:49:54.597Z,17.42
2024-01-29T08:50:54.663Z,17.03
2024-01-29T08:51:54.794Z,16.87
2024-01-29T08:52:54.819Z,15.93
2024-01-29T08:53:54.849Z,15.92
2024-01-29T08:54:54.904Z,15.52
2024-01-29T08:55:55.081Z,14.86
2024-01-29T08:56:55.002Z,14.47
2024-01-29T08:57:55.022Z,14.25
2024-01-29T08:58:55.022Z,13.80
2024-01-29T08:59:55.028Z,13.23
2024-01-29T09:00:55.215Z,12.66
2024-01-29T09:01:55.180Z,12.52
2024-01-29T09:02:55.132Z,11.98
2024-01-29T09:03:55.204Z,11.15
2024-01-29T09:04:55.326Z,11.15
2024-01-29T09:05:55.230Z,10.87
2024-01-29T09:06:55.218Z,10.87
2024-01-29T09:07:56.245Z,10.35
2024-01-29T09:08:55.233Z,10.02
2024-01-29T09:09:55.254Z,9.73
2024-01-29T09:10:55.232Z,9.87
2024-01-29T09:11:55.238Z,9.38
2024-01-29T09:12:55.274Z,9.39
2024-01-29T09:13:55.257Z,9.29
2024-01-29T09:14:55.258Z,8.72
2024-01-29T09:15:55.257Z,8.47
2024-01-29T09:16:55.894Z,8.58
2024-01-29T09:17:55.326Z,8.15
2024-01-29T09:18:55.969Z,8.18
2024-01-29T09:19:55.966Z,7.94
2024-01-29T09:20:55.282Z,8.04
2024-01-29T09:21:55.344Z,7.90
2024-01-29T09:22:55.327Z,7.95
2024-01-29T09:23:55.286Z,7.59
2024-01-29T09:24:55.329Z,7.09
2024-01-29T09:25:55.872Z,6.89
2024-01-29T09:26:55.293Z,6.50
2024-01-29T09:27:55.338Z,6.52
2024-01-29T09:28:55.288Z,6.28
2024-01-29T09:29:55.287Z,6.35
2024-01-29T09:30:55.325Z,5.90
2024-01-29T09:31:55.277Z,5.68
2024-01-29T09:33:03.335Z,5.59
2024-01-29T09:33:56.545Z,5.60
2024-01-29T09:34:55.463Z,5.60
2024-01-29T09:35:55.283Z,5.52
2024-01-29T09:36:55.335Z,5.44
2024-01-29T09:37:55.345Z,5.31
2024-01-29T09:38:55.264Z,5.14
2024-01-29T09:39:55.298Z,5.06
2024-01-29T09:40:55.273Z,4.99
2024-01-29T09:41:55.285Z,4.97
2024-01-29T09:42:55.910Z,4.73
2024-01-29T09:43:55.274Z,4.67
2024-01-29T09:44:55.262Z,4.60
2024-01-29T09:45:55.271Z,4.41
2024-01-29T09:46:55.245Z,4.45
2024-01-29T09:47:56.080Z,4.26
2024-01-29T09:48:55.357Z,4.17
2024-01-29T09:49:55.979Z,4.18
2024-01-29T09:50:55.261Z,4.08
2024-01-29T09:51:55.265Z,3.97
2024-01-29T09:52:58.852Z,3.94
2024-01-29T09:53:55.241Z,3.95
2024-01-29T09:54:55.257Z,3.92
2024-01-29T09:55:55.206Z,3.80
2024-01-29T09:56:55.219Z,3.86
2024-01-29T09:57:55.305Z,3.67
2024-01-29T09:58:55.267Z,3.67
2024-01-29T09:59:55.948Z,3.63
2024-01-29T10:00:55.277Z,3.58
2024-01-29T10:01:55.238Z,3.49
2024-01-29T10:02:55.368Z,3.45
2024-01-29T10:03:55.264Z,3.36
2024-01-29T10:04:55.218Z,3.28
2024-01-29T10:05:55.161Z,3.33
2024-01-29T10:06:55.237Z,3.25
2024-01-29T10:07:55.318Z,3.28
2024-01-29T10:08:55.133Z,3.15
2024-01-29T10:09:55.215Z,3.18
2024-01-29T10:10:55.126Z,3.06
2024-01-29T10:11:55.145Z,3.09
2024-01-29T10:12:55.144Z,3.05
2024-01-29T10:13:55.954Z,2.96
2024-01-29T10:14:55.119Z,3.00
2024-01-29T10:15:55.212Z,2.84
2024-01-29T10:16:55.089Z,2.83
2024-01-29T10:17:55.129Z,2.83
2024-01-29T10:18:55.178Z,2.55
2024-01-29T10:19:55.260Z,2.37
2024-01-29T10:20:55.172Z,2.11
2024-01-29T10:21:55.230Z,1.87
2024-01-29T10:22:55.195Z,1.54
2024-01-29T10:23:55.221Z,1.42
2024-01-29T10:24:55.273Z,1.29
2024-01-29T10:25:55.973Z,1.20
2024-01-29T10:26:55.292Z,1.12
2024-01-29T10:27:55.326Z,1.08
2024-01-29T10:28:55.345Z,1.07
2024-01-29T10:29:55.353Z,1.06
2024-01-29T10:30:55.630Z,1.04
2024-01-29T10:31:55.495Z,1.06
2024-01-29T10:32:55.683Z,1.05
2024-01-29T10:33:55.749Z,1.08
2024-01-29T10:34:55.840Z,1.13
2024-01-29T10:35:55.820Z,1.16
2024-01-29T10:36:55.816Z,1.26
2024-01-29T10:37:55.835Z,1.45
2024-01-29T10:38:55.868Z,1.47
2024-01-29T10:39:59.666Z,1.65
2024-01-29T10:40:55.907Z,1.65
2024-01-29T10:41:56.542Z,1.68
2024-01-29T10:42:55.913Z,1.76
2024-01-29T10:43:55.875Z,2.02
2024-01-29T10:44:55.891Z,3.33
2024-01-29T10:45:57.540Z,3.85
2024-01-29T10:46:55.850Z,4.22
2024-01-29T10:47:57.650Z,4.48
2024-01-29T10:48:56.110Z,4.89
2024-01-29T10:49:57.011Z,5.05
2024-01-29T10:50:56.077Z,5.27
2024-01-29T10:51:56.526Z,5.51
2024-01-29T10:52:56.136Z,5.94
2024-01-29T10:53:56.142Z,6.20
2024-01-29T10:54:56.220Z,6.38
2024-01-29T10:55:56.216Z,6.59
2024-01-29T10:56:56.279Z,6.83
2024-01-29T10:57:56.285Z,7.09
2024-01-29T10:58:56.306Z,7.44
2024-01-29T10:59:56.398Z,7.99
2024-01-29T11:00:56.452Z,8.26
2024-01-29T11:02:03.852Z,8.40
2024-01-29T11:02:57.453Z,8.43
2024-01-29T11:03:56.434Z,8.58
2024-01-29T11:04:56.419Z,8.84
2024-01-29T11:05:56.402Z,9.60
2024-01-29T11:06:57.380Z,8.48
2024-01-29T11:07:56.284Z,8.82
2024-01-29T11:08:56.284Z,9.55
2024-01-29T11:09:56.317Z,11.17
2024-01-29T11:10:56.312Z,11.82
2024-01-29T11:11:56.234Z,9.78
2024-01-29T11:12:56.321Z,7.38
2024-01-29T11:13:56.242Z,6.25
2024-01-29T11:14:56.226Z,5.20
2024-01-29T11:15:56.282Z,4.71
2024-01-29T11:16:56.206Z,4.29
2024-01-29T11:17:56.220Z,3.90
2024-01-29T11:18:56.264Z,3.67
2024-01-29T11:19:56.243Z,3.28
2024-01-29T11:20:56.986Z,3.26
2024-01-29T11:21:56.267Z,3.16
2024-01-29T11:22:56.302Z,3.21
2024-01-29T11:23:56.323Z,3.17
2024-01-29T11:24:56.309Z,3.09
2024-01-29T11:25:56.301Z,3.23
2024-01-29T11:26:56.987Z,3.23
2024-01-29T11:27:56.276Z,3.20
2024-01-29T11:28:56.355Z,3.33
2024-01-29T11:29:56.430Z,3.42
2024-01-29T11:30:56.584Z,3.43
2024-01-29T11:31:57.000Z,3.56
2024-01-29T11:32:56.623Z,3.58
2024-01-29T11:33:56.958Z,3.73
2024-01-29T11:34:56.531Z,3.81
2024-01-29T11:35:56.614Z,3.81
2024-01-29T11:36:57.659Z,3.94
2024-01-29T11:37:56.621Z,3.98
2024-01-29T11:38:56.728Z,4.09
2024-01-29T11:39:56.721Z,4.12
2024-01-29T11:40:56.741Z,4.16
2024-01-29T11:41:56.751Z,4.27
2024-01-29T11:42:56.867Z,4.37
2024-01-29T11:43:56.812Z,4.50
2024-01-29T11:44:56.914Z,4.41
2024-01-29T11:45:57.477Z,4.81
2024-01-29T11:46:56.912Z,4.82
2024-01-29T11:47:57.539Z,4.90
2024-01-29T11:48:57.105Z,4.99
2024-01-29T11:49:57.535Z,5.22
2024-01-29T11:50:56.968Z,5.30
2024-01-29T11:51:58.011Z,5.31
2024-01-29T11:53:04.662Z,5.36
2024-01-29T11:53:57.921Z,5.33
2024-01-29T11:54:56.948Z,5.47
2024-01-29T11:55:57.871Z,5.36
2024-01-29T11:56:57.501Z,5.65
2024-01-29T11:57:56.856Z,6.18
2024-01-29T11:58:56.810Z,6.94
2024-01-29T11:59:56.791Z,7.15
2024-01-29T12:00:57.081Z,7.00
2024-01-29T12:01:56.785Z,6.75
2024-01-29T12:02:56.719Z,6.28
2024-01-29T12:03:56.727Z,6.04
2024-01-29T12:04:56.735Z,5.84
2024-01-29T12:05:56.681Z,5.85
2024-01-29T12:06:56.799Z,5.73
2024-01-29T12:07:56.795Z,5.55
2024-01-29T12:08:56.580Z,5.49
2024-01-29T12:09:56.571Z,5.22
2024-01-29T12:10:56.546Z,5.12
2024-01-29T12:11:56.550Z,5.07
2024-01-29T12:12:56.686Z,5.08
2024-01-29T12:13:56.542Z,4.89
2024-01-29T12:14:56.543Z,4.86
2024-01-29T12:15:56.559Z,4.82
2024-01-29T12:16:56.595Z,4.69
2024-01-29T12:17:57.028Z,4.63
2024-01-29T12:18:56.587Z,4.61
2024-01-29T12:19:56.420Z,4.44
2024-01-29T12:20:56.425Z,4.38
2024-01-29T12:21:56.438Z,4.40
2024-01-29T12:22:56.368Z,4.29
2024-01-29T12:23:56.366Z,4.24
2024-01-29T12:24:56.432Z,4.15
2024-01-29T12:25:56.344Z,4.10
2024-01-29T12:26:56.285Z,4.04
2024-01-29T12:27:56.296Z,4.04
2024-01-29T12:28:56.233Z,4.00
2024-01-29T12:29:56.235Z,3.90
2024-01-29T12:30:56.207Z,3.90
2024-01-29T12:31:56.169Z,3.80
2024-01-29T12:32:56.237Z,3.79
2024-01-29T12:33:56.363Z,3.75
2024-01-29T12:34:56.284Z,3.60
2024-01-29T12:35:56.093Z,3.62
2024-01-29T12:36:56.150Z,3.52
2024-01-29T12:37:56.157Z,3.59
2024-01-29T12:38:56.642Z,3.49
2024-01-29T12:39:56.127Z,3.36
2024-01-29T12:40:56.119Z,3.38
2024-01-29T12:41:56.052Z,3.39
2024-01-29T12:42:56.089Z,3.32
2024-01-29T12:43:56.019Z,3.28
2024-01-29T12:44:55.975Z,3.26
2024-01-29T12:45:56.011Z,3.25
2024-01-29T12:46:55.938Z,3.22
2024-01-29T12:47:55.953Z,3.21
2024-01-29T12:48:56.056Z,3.11
2024-01-29T12:49:56.094Z,3.05
2024-01-29T12:50:55.979Z,3.07
2024-01-29T12:51:55.910Z,3.10
2024-01-29T12:52:55.834Z,3.06
2024-01-29T12:53:55.819Z,2.94
2024-01-29T12:54:55.821Z,2.93
2024-01-29T12:55:55.763Z,2.94
2024-01-29T12:56:55.759Z,2.90
2024-01-29T12:57:55.786Z,2.93
2024-01-29T12:58:55.723Z,2.83
2024-01-29T12:59:55.705Z,2.86
2024-01-29T13:00:55.786Z,2.86
2024-01-29T13:01:55.739Z,2.80
2024-01-29T13:02:55.684Z,2.78
2024-01-29T13:03:55.835Z,2.79
2024-01-29T13:04:55.810Z,2.77
2024-01-29T13:05:55.787Z,2.78
2024-01-29T13:06:55.737Z,2.71
2024-01-29T13:07:55.767Z,2.70
2024-01-29T13:08:55.777Z,2.66
2024-01-29T13:09:55.817Z,2.60
2024-01-29T13:10:55.973Z,2.65
2024-01-29T13:11:55.901Z,2.58
2024-01-29T13:12:55.992Z,2.58
2024-01-29T13:13:55.898Z,2.61
2024-01-29T13:14:56.532Z,2.54